Time;durP1;ratioP1;P1;durP2;ratioP2;P2;SDS_P1;SDS_P2;PMS_P1;PMS_P2;Temp;Humidity;BMP_temperature;BMP_pressure;BME280_temperature;BME280_humidity;BME280_pressure;Samples;Min_cycle;Max_cycle;Signal;HPM_P1;HPM_P2
2021/12/12 00:02:19;;;;;;;9.98;4.78;;;2.10;99.90;;;;;;5074868;28;20031;-67
2021/12/12 00:04:47;;;;;;;12.38;5.97;;;2.10;99.90;;;;;;5074969;28;20101;-67
2021/12/12 00:07:20;;;;;;;20.57;4.00;;;2.10;99.90;;;;;;5056551;28;20078;-67
2021/12/12 00:09:49;;;;;;;11.73;5.25;;;2.10;99.90;;;;;;5056960;28;20029;-67
2021/12/12 00:12:17;;;;;;;;;;;2.10;99.90;;;;;;5074884;28;20035;-67
2021/12/12 00:14:43;;;;;;;10.63;5.07;;;2.10;99.90;;;;;;5056873;28;19908;-67
2021/12/12 00:17:11;;;;;;;15.30;5.93;;;2.10;99.90;;;;;;5073870;28;20028;-67
2021/12/12 00:19:37;;;;;;;8.85;4.78;;;2.10;99.90;;;;;;5056386;28;20028;-68
2021/12/12 00:22:08;;;;;;;10.30;6.05;;;2.10;99.90;;;;;;5074401;28;20028;-67
2021/12/12 00:24:34;;;;;;;11.10;5.22;;;2.10;99.90;;;;;;5074265;28;20029;-68
2021/12/12 00:27:01;;;;;;;11.10;5.05;;;2.00;99.90;;;;;;5074156;28;20024;-68
2021/12/12 00:29:28;;;;;;;13.38;5.03;;;2.10;99.90;;;;;;5073851;28;20492;-67
2021/12/12 00:31:58;;;;;;;13.23;5.50;;;2.10;99.90;;;;;;5074101;28;20396;-68
2021/12/12 00:34:24;;;;;;;10.05;4.20;;;2.00;99.90;;;;;;5056484;28;20033;-67
2021/12/12 00:36:50;;;;;;;10.05;4.90;;;2.00;99.90;;;;;;5056524;28;20025;-67
2021/12/12 00:39:25;;;;;;;8.90;4.25;;;2.00;99.90;;;;;;5056163;28;20115;-67
2021/12/12 00:42:10;;;;;;;7.88;3.97;;;2.00;99.90;;;;;;5073935;28;20025;-68
2021/12/12 00:44:38;;;;;;;8.25;4.57;;;2.00;99.90;;;;;;5056174;28;20486;-67
2021/12/12 00:47:07;;;;;;;9.88;4.55;;;2.00;99.90;;;;;;5073878;28;20023;-67
2021/12/12 00:49:35;;;;;;;;;;;2.00;99.90;;;;;;5074541;28;20044;-67
2021/12/12 00:52:03;;;;;;;9.68;4.45;;;2.00;99.90;;;;;;5073824;28;19909;-68
2021/12/12 00:54:31;;;;;;;9.00;4.35;;;2.00;99.90;;;;;;5073430;28;20357;-67
2021/12/12 00:57:00;;;;;;;6.82;3.60;;;2.00;99.90;;;;;;5073752;28;20032;-67
2021/12/12 00:59:27;;;;;;;7.47;4.15;;;2.00;99.90;;;;;;5073683;28;20029;-67
2021/12/12 01:01:53;;;;;;;6.93;3.30;;;2.10;99.90;;;;;;5073535;28;20025;-67
2021/12/12 01:04:27;;;;;;;7.43;3.40;;;2.10;99.90;;;;;;5073544;28;20027;-67
2021/12/12 01:06:55;;;;;;;7.88;3.70;;;2.10;99.90;;;;;;5073634;28;20028;-67
2021/12/12 01:09:26;;;;;;;4.40;2.75;;;2.10;99.90;;;;;;5073351;28;20021;-67
2021/12/12 01:11:57;;;;;;;6.05;3.70;;;2.10;99.90;;;;;;5055779;28;20029;-67
2021/12/12 01:14:32;;;;;;;4.25;2.80;;;2.10;99.90;;;;;;5056289;28;20031;-67
2021/12/12 01:17:03;;;;;;;4.15;2.67;;;2.00;99.90;;;;;;5073633;28;20021;-67
2021/12/12 01:19:55;;;;;;;6.93;3.53;;;2.10;99.90;;;;;;5073569;28;20029;-67
2021/12/12 01:22:29;;;;;;;7.30;3.78;;;3.90;99.90;;;;;;5073584;28;20119;-68
2021/12/12 01:24:58;;;;;;;7.65;3.67;;;2.00;99.90;;;;;;5055494;28;20034;-67
2021/12/12 01:27:24;;;;;;;6.65;3.75;;;2.00;99.90;;;;;;5055549;28;20382;-67
2021/12/12 01:29:51;;;;;;;7.70;3.40;;;2.10;99.90;;;;;;5074115;28;20058;-68
2021/12/12 01:32:29;;;;;;;6.80;2.90;;;2.00;99.90;;;;;;5076219;28;20045;-68
2021/12/12 01:34:57;;;;;;;8.98;3.95;;;2.00;99.90;;;;;;5076134;28;20035;-68
2021/12/12 01:40:11;;;;;;;7.22;2.80;;;2.10;99.90;;;;;;5073910;28;20078;-67
2021/12/12 01:42:43;;;;;;;8.18;3.17;;;2.10;99.90;;;;;;5073277;28;20549;-67
2021/12/12 01:48:31;;;;;;;5.28;2.80;;;2.10;99.90;;;;;;5073426;28;20082;-67
2021/12/12 01:51:00;;;;;;;6.65;2.45;;;2.10;99.90;;;;;;5073159;28;20033;-67
2021/12/12 01:53:29;;;;;;;3.47;2.28;;;2.10;99.90;;;;;;5073145;28;20345;-67
2021/12/12 01:55:58;;;;;;;7.53;2.88;;;2.10;99.90;;;;;;5073094;28;20099;-68
2021/12/12 01:58:27;;;;;;;5.57;3.05;;;2.10;99.90;;;;;;5055005;28;20097;-67
2021/12/12 02:01:23;;;;;;;6.82;3.00;;;2.00;99.90;;;;;;5073196;28;20028;-67
2021/12/12 02:03:58;;;;;;;5.68;2.55;;;2.10;99.90;;;;;;5071835;28;20067;-68
2021/12/12 02:06:24;;;;;;;5.88;3.30;;;2.10;99.90;;;;;;5054923;28;20540;-67
2021/12/12 02:08:52;;;;;;;6.95;3.00;;;2.00;99.90;;;;;;5072825;28;20028;-67
2021/12/12 02:11:24;;;;;;;3.95;3.00;;;2.00;99.90;;;;;;5072521;28;20119;-68
2021/12/12 02:13:52;;;;;;;5.85;3.00;;;2.00;99.90;;;;;;5054783;28;20078;-67
2021/12/12 02:16:20;;;;;;;5.78;3.03;;;2.00;99.90;;;;;;5072836;28;20029;-68
2021/12/12 02:18:50;;;;;;;6.43;3.28;;;2.00;99.90;;;;;;5054827;28;20384;-68
2021/12/12 02:21:52;;;;;;;5.72;3.33;;;2.00;99.90;;;;;;5072327;28;20354;-68
2021/12/12 02:35:26;;;;;;;6.70;2.90;;;1.90;99.90;;;;;;5073055;28;20496;-67
2021/12/12 02:37:56;;;;;;;6.78;3.08;;;1.90;99.90;;;;;;5072827;28;20074;-68
2021/12/12 02:40:28;;;;;;;7.13;3.05;;;1.90;99.90;;;;;;5072413;28;20035;-68
2021/12/12 02:42:54;;;;;;;8.90;3.60;;;1.90;99.90;;;;;;5075991;28;20024;-67
2021/12/12 02:45:22;;;;;;;6.90;4.05;;;1.90;99.90;;;;;;5058409;28;20059;-67
2021/12/12 02:47:56;;;;;;;6.25;3.50;;;1.90;99.90;;;;;;5075971;28;20082;-68
2021/12/12 02:50:30;;;;;;;7.25;3.47;;;1.90;99.90;;;;;;5058232;28;20369;-68
2021/12/12 02:53:23;;;;;;;5.38;2.92;;;1.80;99.90;;;;;;5076372;28;20178;-68
2021/12/12 02:55:58;;;;;;;4.00;2.55;;;1.90;99.90;;;;;;5076097;28;20024;-68
2021/12/12 02:58:26;;;;;;;6.15;3.75;;;1.80;99.90;;;;;;5058390;28;20102;-68
2021/12/12 03:01:14;;;;;;;5.43;3.28;;;1.80;99.90;;;;;;5057973;28;20094;-68
2021/12/12 03:03:58;;;;;;;6.88;3.28;;;1.90;99.90;;;;;;5075963;28;20111;-68
2021/12/12 03:06:29;;;;;;;5.43;3.25;;;1.90;99.90;;;;;;5076040;28;20029;-67
2021/12/12 03:09:01;;;;;;;5.78;3.17;;;1.90;99.90;;;;;;5057932;28;20480;-67
2021/12/12 03:11:28;;;;;;;6.55;3.50;;;1.90;99.90;;;;;;5076061;28;20039;-67
2021/12/12 03:13:54;;;;;;;7.05;3.72;;;1.90;99.90;;;;;;5075965;28;20024;-68
2021/12/12 03:16:20;;;;;;;6.22;3.22;;;1.90;99.90;;;;;;5057910;28;20024;-68
2021/12/12 03:18:47;;;;;;;6.15;3.65;;;1.90;99.90;;;;;;5057970;28;20357;-68
2021/12/12 03:21:29;;;;;;;7.85;4.22;;;1.80;99.90;;;;;;5075189;28;20499;-68
2021/12/12 03:23:57;;;;;;;5.32;3.53;;;1.80;99.90;;;;;;5075580;28;20017;-68
2021/12/12 03:26:23;;;;;;;4.90;3.00;;;1.80;99.90;;;;;;5075205;28;20027;-68
2021/12/12 03:28:54;;;;;;;7.07;3.80;;;1.90;99.90;;;;;;5057443;28;20034;-68
2021/12/12 03:31:33;;;;;;;9.20;4.28;;;1.90;99.90;;;;;;5077099;28;20441;-67
2021/12/12 03:34:05;;;;;;;6.38;3.30;;;1.90;99.90;;;;;;5095170;28;20048;-67
2021/12/12 03:36:32;;;;;;;10.75;3.55;;;1.90;99.90;;;;;;5095627;28;20031;-68
2021/12/12 03:39:04;;;;;;;8.32;3.92;;;1.90;99.90;;;;;;5095580;28;20073;-68
2021/12/12 03:41:33;;;;;;;9.10;3.83;;;1.90;99.90;;;;;;5095397;28;20115;-68
2021/12/12 03:44:02;;;;;;;8.07;3.38;;;1.90;99.90;;;;;;5095369;28;20036;-68
2021/12/12 03:46:28;;;;;;;;;;;1.90;99.90;;;;;;5096002;28;20028;-68
2021/12/12 03:48:56;;;;;;;6.13;3.05;;;1.90;99.90;;;;;;5095524;28;20259;-67
2021/12/12 03:51:28;;;;;;;5.55;3.50;;;1.90;99.90;;;;;;5094940;28;20062;-68
2021/12/12 03:53:55;;;;;;;8.60;3.80;;;1.90;99.90;;;;;;5095156;28;20064;-67
2021/12/12 03:56:40;;;;;;;8.38;4.40;;;1.90;99.90;;;;;;5093838;28;20392;-67
2021/12/12 03:59:06;;;;;;;7.55;3.97;;;1.90;99.90;;;;;;5093890;28;20124;-67
2021/12/12 04:01:39;;;;;;;6.85;3.38;;;1.80;99.90;;;;;;5094104;28;20446;-67
2021/12/12 04:04:13;;;;;;;8.10;3.53;;;1.80;99.90;;;;;;5095390;28;20024;-68
2021/12/12 04:06:40;;;;;;;6.25;3.65;;;1.90;99.90;;;;;;5093642;28;20479;-68
2021/12/12 04:09:08;;;;;;;10.27;3.58;;;1.90;99.90;;;;;;5094790;28;20024;-67
2021/12/12 04:11:39;;;;;;;5.38;3.90;;;1.80;99.90;;;;;;5093620;28;20089;-68
2021/12/12 04:14:06;;;;;;;8.32;3.67;;;1.80;99.90;;;;;;5094833;28;20028;-69
2021/12/12 04:16:36;;;;;;;6.72;3.20;;;1.80;99.90;;;;;;5093945;28;20035;-68
2021/12/12 04:19:04;;;;;;;11.77;3.97;;;1.80;99.90;;;;;;5095021;28;20074;-68
2021/12/12 04:21:30;;;;;;;6.45;3.65;;;1.80;99.90;;;;;;5094582;28;20028;-68
2021/12/12 04:23:56;;;;;;;7.05;4.00;;;1.80;99.90;;;;;;5093296;28;20028;-68
2021/12/12 04:26:25;;;;;;;7.70;3.83;;;1.80;99.90;;;;;;5093284;28;20467;-68
2021/12/12 04:29:25;;;;;;;7.95;4.03;;;1.80;99.90;;;;;;5094568;28;20039;-68
2021/12/12 04:31:54;;;;;;;6.95;3.50;;;1.90;99.90;;;;;;5050824;28;20055;-68
2021/12/12 04:34:21;;;;;;;;;;;1.90;99.90;;;;;;5094164;28;20391;-68
2021/12/12 04:36:48;;;;;;;6.78;3.30;;;1.90;99.90;;;;;;5093023;28;20340;-68
2021/12/12 04:39:26;;;;;;;6.60;3.95;;;1.90;99.90;;;;;;5094291;28;20456;-68
2021/12/12 04:41:57;;;;;;;5.53;3.20;;;1.90;99.90;;;;;;5093971;28;20460;-68
2021/12/12 04:44:27;;;;;;;7.85;4.38;;;1.90;99.90;;;;;;5094344;28;20108;-68
2021/12/12 04:50:05;;;;;;;7.47;3.53;;;1.90;99.90;;;;;;5093990;28;20498;-68
2021/12/12 04:52:49;;;;;;;5.57;3.58;;;1.90;99.90;;;;;;5094045;28;20074;-68
2021/12/12 04:55:31;;;;;;;7.45;3.95;;;1.90;99.90;;;;;;5094750;28;20024;-68
2021/12/12 04:58:13;;;;;;;9.15;3.90;;;1.90;99.90;;;;;;5094090;28;20024;-68
2021/12/12 05:00:48;;;;;;;9.07;4.45;;;1.90;99.90;;;;;;5093955;28;20052;-68
2021/12/12 05:03:27;;;;;;;6.47;3.80;;;1.90;99.90;;;;;;5092369;28;20114;-68
2021/12/12 05:06:02;;;;;;;8.98;4.22;;;1.90;99.90;;;;;;5092466;28;20486;-68
2021/12/12 05:08:54;;;;;;;8.15;3.38;;;1.90;99.90;;;;;;5093420;28;20042;-68
2021/12/12 05:11:34;;;;;;;7.95;3.78;;;1.90;99.90;;;;;;5093908;28;20463;-68
2021/12/12 05:14:06;;;;;;;9.82;4.68;;;1.90;99.90;;;;;;5093784;28;20348;-68
2021/12/12 05:16:41;;;;;;;8.10;4.10;;;1.90;99.90;;;;;;5093761;28;20096;-68
2021/12/12 05:19:12;;;;;;;8.43;4.57;;;1.90;99.90;;;;;;5093611;28;20069;-68
2021/12/12 05:21:43;;;;;;;7.18;4.13;;;1.80;99.90;;;;;;5093543;28;20060;-68
2021/12/12 05:24:11;;;;;;;7.35;4.07;;;1.80;99.90;;;;;;5092253;28;20054;-68
2021/12/12 05:26:49;;;;;;;6.65;3.70;;;1.80;99.90;;;;;;5093744;28;20024;-68
2021/12/12 05:29:29;;;;;;;8.85;4.18;;;1.80;99.90;;;;;;5093779;28;20047;-68
2021/12/12 05:31:59;;;;;;;9.38;4.35;;;1.80;99.90;;;;;;5077259;28;20059;-68
2021/12/12 05:34:30;;;;;;;8.38;3.97;;;1.80;99.90;;;;;;5072854;28;20098;-68
2021/12/12 05:36:57;;;;;;;13.18;4.93;;;1.80;99.90;;;;;;5073338;28;20029;-68
2021/12/12 05:39:24;;;;;;;9.50;4.43;;;1.80;99.90;;;;;;5055243;28;20029;-68
2021/12/12 05:41:53;;;;;;;8.02;4.45;;;1.80;99.90;;;;;;5055386;28;20424;-68
2021/12/12 05:44:19;;;;;;;9.48;4.28;;;1.80;99.90;;;;;;5055531;28;20095;-68
2021/12/12 05:46:46;;;;;;;10.18;4.30;;;1.80;99.90;;;;;;5055590;28;20029;-68
2021/12/12 05:49:12;;;;;;;7.93;4.13;;;1.80;99.90;;;;;;5073576;28;20161;-68
2021/12/12 05:51:38;;;;;;;7.07;3.88;;;1.80;99.90;;;;;;5073311;28;20039;-68
2021/12/12 05:54:05;;;;;;;7.97;4.03;;;1.80;99.90;;;;;;5073293;28;20024;-68
2021/12/12 05:56:35;;;;;;;9.45;4.20;;;1.90;99.90;;;;;;5073434;28;20074;-68
2021/12/12 05:59:02;;;;;;;6.85;3.67;;;1.90;99.90;;;;;;5073383;28;20144;-68
2021/12/12 06:01:29;;;;;;;5.55;3.75;;;1.90;99.90;;;;;;5072829;28;20028;-68
2021/12/12 06:03:55;;;;;;;7.78;4.63;;;1.90;99.90;;;;;;5073524;28;20090;-68
2021/12/12 06:06:35;;;;;;;5.68;3.05;;;1.90;99.90;;;;;;5073043;28;20403;-68
2021/12/12 06:09:05;;;;;;;6.75;3.70;;;1.90;99.90;;;;;;5055240;28;20495;-68
2021/12/12 06:11:33;;;;;;;8.32;3.70;;;1.90;99.90;;;;;;5073229;28;20028;-68
2021/12/12 06:14:01;;;;;;;11.57;4.88;;;1.90;99.90;;;;;;5072946;28;20128;-68
2021/12/12 06:16:30;;;;;;;8.15;3.95;;;1.90;99.90;;;;;;5074782;28;20028;-67
2021/12/12 06:19:02;;;;;;;8.13;3.67;;;1.90;99.90;;;;;;5058729;28;20438;-68
2021/12/12 06:21:29;;;;;;;7.75;3.90;;;1.90;99.90;;;;;;5076461;28;20078;-68
2021/12/12 06:23:55;;;;;;;7.07;3.67;;;1.90;99.90;;;;;;5058663;28;20480;-68
2021/12/12 06:26:21;;;;;;;8.18;4.13;;;1.90;99.90;;;;;;5076393;28;20044;-68
2021/12/12 06:28:48;;;;;;;8.30;4.05;;;2.00;99.90;;;;;;5076226;28;20036;-68
2021/12/12 06:31:15;;;;;;;7.60;3.72;;;2.00;99.90;;;;;;5076708;28;20167;-68
2021/12/12 06:33:42;;;;;;;10.57;4.20;;;2.00;99.90;;;;;;5076340;28;20027;-68
2021/12/12 06:36:09;;;;;;;6.75;3.72;;;2.00;99.90;;;;;;5076337;28;20040;-68
2021/12/12 06:38:38;;;;;;;9.20;3.85;;;2.00;99.90;;;;;;5058086;28;20043;-68
2021/12/12 06:41:05;;;;;;;10.63;5.30;;;2.00;99.90;;;;;;5076159;28;20032;-68
2021/12/12 06:43:31;;;;;;;8.90;4.10;;;2.00;99.90;;;;;;5058174;28;20032;-68
2021/12/12 06:45:58;;;;;;;8.43;4.38;;;2.00;99.90;;;;;;5076470;28;20029;-68
2021/12/12 06:48:25;;;;;;;11.40;4.18;;;2.00;99.90;;;;;;5075714;28;20035;-68
2021/12/12 06:50:54;;;;;;;9.95;4.47;;;2.00;99.90;;;;;;5058251;28;20118;-69
2021/12/12 06:53:22;;;;;;;11.43;5.25;;;2.00;99.90;;;;;;5076206;28;20025;-72
2021/12/12 06:55:49;;;;;;;8.27;4.30;;;2.00;99.90;;;;;;5076066;28;20017;-67
2021/12/12 06:58:18;;;;;;;12.13;4.32;;;2.00;99.90;;;;;;5075934;28;20099;-68
2021/12/12 07:00:50;;;;;;;11.25;5.13;;;2.10;99.90;;;;;;5057869;28;20115;-69
2021/12/12 07:03:17;;;;;;;9.82;4.78;;;2.00;99.90;;;;;;5075568;28;20039;-68
2021/12/12 07:05:43;;;;;;;11.45;4.68;;;2.10;99.90;;;;;;5076028;28;20108;-69
2021/12/12 07:08:10;;;;;;;8.55;4.00;;;2.10;99.90;;;;;;5057794;28;20052;-69
2021/12/12 07:10:36;;;;;;;9.32;5.20;;;2.10;99.90;;;;;;5075691;28;20060;-69
2021/12/12 07:13:03;;;;;;;9.85;5.22;;;2.10;99.90;;;;;;5058125;28;20081;-68
2021/12/12 07:15:33;;;;;;;11.27;6.10;;;2.10;99.90;;;;;;5057942;28;20124;-68
2021/12/12 07:18:07;;;;;;;10.93;5.20;;;2.10;99.90;;;;;;5057691;28;20140;-73
2021/12/12 07:20:33;;;;;;;11.05;5.07;;;2.10;99.90;;;;;;5057544;28;20334;-67
2021/12/12 07:23:02;;;;;;;12.88;5.47;;;2.10;99.90;;;;;;5076070;28;20029;-68
2021/12/12 07:25:28;;;;;;;;;;;2.10;99.90;;;;;;5075654;28;20392;-69
2021/12/12 07:27:54;;;;;;;9.60;4.90;;;2.10;99.90;;;;;;5075004;28;19904;-69
2021/12/12 07:30:20;;;;;;;11.43;5.93;;;2.10;99.90;;;;;;5075087;28;20049;-69
2021/12/12 07:32:47;;;;;;;11.45;5.50;;;2.10;99.90;;;;;;5075315;28;20028;-68
2021/12/12 07:35:15;;;;;;;13.68;6.45;;;2.20;99.90;;;;;;5075602;28;20056;-70
2021/12/12 07:37:44;;;;;;;13.70;6.03;;;2.20;99.90;;;;;;5075005;28;20025;-69
2021/12/12 07:40:10;;;;;;;;;;;2.20;99.90;;;;;;5075565;28;20033;-71
2021/12/12 07:42:36;;;;;;;11.98;6.38;;;2.20;99.90;;;;;;5075101;28;19947;-70
2021/12/12 07:45:06;;;;;;;13.98;6.57;;;2.20;99.90;;;;;;5075150;28;20033;-69
2021/12/12 07:47:33;;;;;;;12.80;6.82;;;2.20;99.90;;;;;;5057328;28;20021;-69
2021/12/12 07:49:59;;;;;;;15.02;6.38;;;2.20;99.90;;;;;;5074681;28;20027;-68
2021/12/12 07:52:27;;;;;;;13.85;7.38;;;2.20;99.90;;;;;;5074919;28;20024;-69
2021/12/12 07:54:54;;;;;;;18.52;6.72;;;2.30;99.90;;;;;;5074992;28;20025;-68
2021/12/12 07:57:21;;;;;;;14.95;7.35;;;2.30;99.90;;;;;;5074838;28;20021;-67
2021/12/12 07:59:48;;;;;;;13.98;7.50;;;2.30;99.90;;;;;;5056907;28;20024;-69
2021/12/12 08:02:15;;;;;;;16.67;8.05;;;2.30;99.90;;;;;;5074737;28;20032;-69
2021/12/12 08:04:42;;;;;;;18.77;8.18;;;2.30;99.90;;;;;;5074437;28;20549;-69
2021/12/12 08:07:16;;;;;;;17.40;8.25;;;2.40;99.90;;;;;;5075110;28;20106;-69
2021/12/12 08:09:43;;;;;;;14.68;6.72;;;2.40;99.90;;;;;;5057073;28;20035;-68
2021/12/12 08:12:15;;;;;;;21.67;8.27;;;2.40;99.90;;;;;;5074214;28;20031;-67
2021/12/12 08:14:41;;;;;;;19.75;7.82;;;2.40;99.90;;;;;;5074741;28;20024;-67
2021/12/12 08:17:26;;;;;;;16.67;7.78;;;2.80;99.90;;;;;;5075276;28;20536;-69
2021/12/12 08:19:56;;;;;;;18.20;8.45;;;2.50;99.90;;;;;;5075704;28;20376;-67
2021/12/12 08:22:25;;;;;;;14.25;7.18;;;2.50;99.90;;;;;;5057469;28;20083;-67
2021/12/12 08:24:51;;;;;;;18.77;8.60;;;2.50;99.90;;;;;;5073971;28;20068;-68
2021/12/12 08:27:17;;;;;;;16.77;8.15;;;2.50;99.90;;;;;;5074909;28;20025;-75
2021/12/12 08:29:43;;;;;;;17.25;8.48;;;2.60;99.90;;;;;;5075423;28;20376;-71
2021/12/12 08:32:11;;;;;;;14.02;6.97;;;2.80;99.90;;;;;;5074948;28;20102;-58
2021/12/12 08:34:37;;;;;;;13.52;6.97;;;2.90;99.90;;;;;;5074465;28;20404;-58
2021/12/12 08:37:05;;;;;;;11.98;6.57;;;3.00;99.90;;;;;;5074685;28;20028;-58
2021/12/12 08:39:31;;;;;;;16.52;7.75;;;3.20;99.90;;;;;;5073599;28;20020;-57
2021/12/12 08:41:58;;;;;;;15.70;7.32;;;3.20;99.90;;;;;;5074063;28;20469;-58
2021/12/12 08:44:26;;;;;;;15.07;7.20;;;3.30;99.90;;;;;;5074303;28;20036;-66
2021/12/12 08:46:55;;;;;;;16.63;8.10;;;3.20;99.90;;;;;;5056763;28;20056;-69
2021/12/12 08:49:24;;;;;;;17.02;7.20;;;3.00;99.90;;;;;;5073990;28;20207;-66
2021/12/12 08:52:00;;;;;;;15.30;7.43;;;2.90;99.90;;;;;;5073722;28;20036;-69
2021/12/12 08:54:28;;;;;;;17.38;7.20;;;2.90;99.90;;;;;;5051322;28;20380;-68
2021/12/12 08:57:10;;;;;;;11.63;7.10;;;2.80;99.90;;;;;;5054391;28;20021;-68
2021/12/12 08:59:39;;;;;;;11.98;6.45;;;2.70;99.90;;;;;;5051360;28;20036;-69
2021/12/12 09:02:14;;;;;;;14.07;6.53;;;2.60;99.90;;;;;;5065161;28;20039;-70
2021/12/12 09:04:54;;;;;;;15.48;8.18;;;2.60;99.90;;;;;;5073554;28;20021;-70
2021/12/12 09:07:24;;;;;;;12.82;6.75;;;2.60;99.90;;;;;;5073847;28;20043;-71
2021/12/12 09:10:01;;;;;;;10.52;6.10;;;2.60;99.90;;;;;;5074219;28;20040;-68
2021/12/12 09:12:35;;;;;;;12.57;6.63;;;2.60;99.90;;;;;;5055999;28;20602;-73
2021/12/12 09:15:23;;;;;;;12.65;6.47;;;2.60;99.90;;;;;;5056115;28;20028;-70
2021/12/12 09:17:53;;;;;;;13.10;6.35;;;2.60;99.90;;;;;;5074116;28;20047;-71
2021/12/12 09:20:36;;;;;;;12.50;6.00;;;2.60;99.90;;;;;;5075458;28;20024;-70
2021/12/12 09:23:11;;;;;;;17.40;6.90;;;2.90;99.90;;;;;;5058283;28;20076;-71
2021/12/12 09:25:41;;;;;;;16.10;7.80;;;2.60;99.90;;;;;;5056546;28;20415;-71
2021/12/12 09:28:25;;;;;;;15.50;7.25;;;2.60;99.90;;;;;;5075030;28;20021;-71
2021/12/12 09:30:52;;;;;;;14.30;6.88;;;2.60;99.90;;;;;;5069079;28;20051;-71
2021/12/12 09:33:31;;;;;;;13.70;6.80;;;2.60;99.90;;;;;;5096294;28;20024;-71
2021/12/12 09:36:31;;;;;;;15.02;7.68;;;2.70;99.90;;;;;;5096588;28;20032;-72
2021/12/12 09:39:17;;;;;;;18.45;7.88;;;2.80;99.90;;;;;;5084384;28;20036;-71
2021/12/12 09:42:15;;;;;;;18.23;8.75;;;2.90;99.90;;;;;;5092309;28;20028;-71
2021/12/12 09:44:51;;;;;;;16.33;7.47;;;2.90;99.90;;;;;;5093297;28;20020;-71
2021/12/12 09:53:27;;;;;;;17.15;7.70;;;3.20;99.90;;;;;;5097505;28;20494;-71
2021/12/12 09:56:18;;;;;;;15.13;8.02;;;3.20;99.90;;;;;;5096403;28;20111;-74
2021/12/12 09:58:55;;;;;;;18.75;9.38;;;3.40;99.90;;;;;;5096063;28;20085;-70
2021/12/12 10:01:38;;;;;;;17.95;8.48;;;3.40;99.90;;;;;;5097509;28;20024;-70
2021/12/12 10:04:29;;;;;;;18.30;8.00;;;3.40;99.90;;;;;;5095985;28;20032;-70
2021/12/12 10:07:39;;;;;;;14.20;7.63;;;3.40;99.90;;;;;;5097595;28;20036;-67
2021/12/12 10:10:11;;;;;;;17.08;8.52;;;3.40;99.90;;;;;;5034563;28;20029;-67
2021/12/12 10:12:45;;;;;;;18.45;8.77;;;3.50;99.90;;;;;;5034543;28;20048;-67
2021/12/12 10:15:19;;;;;;;17.63;8.45;;;3.50;99.90;;;;;;5073217;28;20117;-66
2021/12/12 10:17:52;;;;;;;18.45;9.00;;;3.60;99.90;;;;;;5096192;28;20524;-69
2021/12/12 10:20:36;;;;;;;14.13;8.35;;;3.60;99.90;;;;;;5097312;28;20094;-70
2021/12/12 10:23:17;;;;;;;20.50;9.88;;;3.60;99.90;;;;;;5097104;28;20040;-69
2021/12/12 10:25:45;;;;;;;16.77;9.07;;;3.60;99.90;;;;;;5096098;28;20020;-69
2021/12/12 10:28:31;;;;;;;19.10;9.30;;;3.50;99.90;;;;;;5095766;28;20024;-68
2021/12/12 10:31:21;;;;;;;17.80;9.10;;;3.50;99.90;;;;;;5095758;28;20056;-70
2021/12/12 10:33:49;;;;;;;20.48;10.07;;;3.60;99.90;;;;;;5095821;28;20020;-72
2021/12/12 10:36:19;;;;;;;16.85;9.85;;;3.70;99.90;;;;;;5097205;28;20478;-66
2021/12/12 10:39:00;;;;;;;18.88;9.85;;;3.80;99.90;;;;;;5096998;28;20034;-68
2021/12/12 10:41:36;;;;;;;19.88;9.05;;;3.80;99.90;;;;;;5095637;28;20055;-69
2021/12/12 10:44:26;;;;;;;16.75;8.57;;;3.80;99.90;;;;;;5096391;28;20494;-69
2021/12/12 10:47:15;;;;;;;15.00;7.70;;;3.80;99.90;;;;;;5095293;28;20067;-68
2021/12/12 10:49:52;;;;;;;18.23;9.77;;;3.80;99.90;;;;;;5096415;28;20056;-69
2021/12/12 10:52:35;;;;;;;17.42;8.60;;;3.90;99.90;;;;;;5096455;28;20031;-66
2021/12/12 10:55:28;;;;;;;16.88;8.68;;;3.90;99.90;;;;;;5096694;28;20066;-69
2021/12/12 10:58:03;;;;;;;16.20;7.95;;;4.00;99.90;;;;;;5096331;28;20114;-70
2021/12/12 11:00:36;;;;;;;18.52;8.25;;;4.10;99.90;;;;;;5096708;28;20020;-68
2021/12/12 11:03:35;;;;;;;13.95;7.65;;;4.20;99.90;;;;;;5094833;28;20043;-69
2021/12/12 11:06:06;;;;;;;17.95;9.20;;;4.10;99.90;;;;;;5095835;28;20038;-69
2021/12/12 11:09:12;;;;;;;15.90;7.28;;;4.00;99.90;;;;;;5096553;28;20107;-69
2021/12/12 11:11:48;;;;;;;16.77;7.53;;;4.00;99.90;;;;;;5078612;28;20480;-72
2021/12/12 11:14:28;;;;;;;17.30;8.00;;;4.00;99.90;;;;;;5095312;28;20025;-69
2021/12/12 11:17:14;;;;;;;15.00;7.70;;;3.90;99.90;;;;;;5096393;28;20101;-70
2021/12/12 11:19:50;;;;;;;14.88;7.00;;;3.80;99.90;;;;;;5096257;28;20020;-68
2021/12/12 11:22:24;;;;;;;11.65;6.22;;;3.80;99.90;;;;;;5094893;28;20030;-69
2021/12/12 11:25:20;;;;;;;13.88;7.63;;;3.60;99.90;;;;;;5096580;28;20540;-69
2021/12/12 11:27:56;;;;;;;13.50;6.28;;;3.60;99.90;;;;;;5090428;28;20028;-69
2021/12/12 11:30:30;;;;;;;16.02;7.47;;;3.60;99.90;;;;;;5092525;28;20056;-70
2021/12/12 11:32:57;;;;;;;12.77;7.07;;;3.60;99.90;;;;;;5075984;28;20031;-70
2021/12/12 11:35:26;;;;;;;10.15;6.32;;;3.70;99.90;;;;;;5057923;28;20032;-70
2021/12/12 11:38:05;;;;;;;12.63;6.35;;;4.10;99.90;;;;;;5057635;28;20045;-70
2021/12/12 11:40:30;;;;;;;14.68;6.78;;;4.20;99.90;;;;;;5075685;28;20024;-70
2021/12/12 11:43:27;;;;;;;15.48;7.50;;;4.20;99.90;;;;;;5075535;28;20043;-69
2021/12/12 11:45:57;;;;;;;15.15;6.72;;;4.70;99.90;;;;;;5058165;28;20028;-70
2021/12/12 11:49:02;;;;;;;16.10;7.38;;;5.10;99.90;;;;;;5057772;28;20033;-70
2021/12/12 11:51:41;;;;;;;13.50;6.88;;;5.80;99.90;;;;;;5058172;28;20024;-70
2021/12/12 11:54:31;;;;;;;13.10;6.75;;;6.30;99.90;;;;;;5075553;28;20028;-70
2021/12/12 11:57:06;;;;;;;14.05;7.18;;;6.40;99.90;;;;;;5058102;28;20021;-70
2021/12/12 11:59:45;;;;;;;11.25;6.47;;;6.70;99.90;;;;;;5075539;28;20080;-70
2021/12/12 12:02:30;;;;;;;11.55;6.55;;;6.20;99.90;;;;;;5057439;28;20028;-70
2021/12/12 12:05:43;;;;;;;13.10;7.03;;;6.00;99.90;;;;;;5057518;28;20040;-70
2021/12/12 12:08:33;;;;;;;14.52;6.80;;;6.60;99.90;;;;;;5065333;28;20499;-70
2021/12/12 12:11:11;;;;;;;14.70;7.68;;;6.90;99.90;;;;;;5075619;28;20503;-69
2021/12/12 12:14:07;;;;;;;17.83;7.47;;;6.80;99.90;;;;;;5074196;28;20131;-70
2021/12/12 12:16:35;;;;;;;15.75;6.55;;;7.00;99.90;;;;;;5075104;28;20025;-70
2021/12/12 12:19:30;;;;;;;11.40;6.20;;;7.00;99.90;;;;;;5075067;28;20028;-70
2021/12/12 12:22:29;;;;;;;8.82;5.40;;;6.20;99.90;;;;;;5074504;28;20058;-70
2021/12/12 12:25:14;;;;;;;12.18;6.25;;;5.60;99.90;;;;;;5057174;28;20060;-70
2021/12/12 12:27:45;;;;;;;13.02;5.47;;;5.70;99.90;;;;;;5057637;28;20024;-70
2021/12/12 12:30:48;;;;;;;12.88;6.78;;;6.10;99.90;;;;;;5074712;28;20027;-71
2021/12/12 12:33:51;;;;;;;9.93;5.20;;;6.10;99.90;;;;;;5057119;28;20373;-70
2021/12/12 12:36:23;;;;;;;11.63;6.13;;;5.90;99.90;;;;;;5056566;28;20032;-71
2021/12/12 12:39:19;;;;;;;9.82;5.57;;;6.00;99.90;;;;;;5074892;28;20032;-70
2021/12/12 12:42:03;;;;;;;12.13;5.78;;;6.10;99.90;;;;;;5074126;28;20392;-70
2021/12/12 12:44:59;;;;;;;9.45;5.00;;;5.90;99.90;;;;;;5074570;28;20093;-70
2021/12/12 12:47:40;;;;;;;8.70;4.57;;;5.80;99.90;;;;;;5074085;28;20025;-70
2021/12/12 12:50:54;;;;;;;9.05;4.72;;;5.70;99.90;;;;;;5056607;28;20110;-70
2021/12/12 12:53:54;;;;;;;9.52;4.88;;;5.50;99.90;;;;;;5034867;28;20040;-70
2021/12/12 12:56:57;;;;;;;7.43;3.90;;;5.40;99.90;;;;;;5056470;28;20052;-70
2021/12/12 12:59:51;;;;;;;7.70;4.07;;;5.20;99.90;;;;;;5056228;28;20112;-70
2021/12/12 13:02:33;;;;;;;6.40;4.05;;;5.20;99.90;;;;;;5056179;28;20123;-71
2021/12/12 13:05:29;;;;;;;6.72;3.03;;;5.20;99.90;;;;;;5056682;28;20495;-71
2021/12/12 13:08:33;;;;;;;8.10;3.40;;;5.20;99.90;;;;;;5074059;28;20380;-71
2021/12/12 13:11:01;;;;;;;4.72;2.97;;;5.10;99.90;;;;;;5056048;28;20139;-70
2021/12/12 13:13:36;;;;;;;7.65;3.10;;;4.90;99.90;;;;;;5056047;28;20419;-70
2021/12/12 13:16:14;;;;;;;5.95;3.05;;;4.90;99.90;;;;;;5056225;28;20036;-71
2021/12/12 13:18:40;;;;;;;6.20;2.70;;;4.90;99.90;;;;;;5073909;28;20032;-71
2021/12/12 13:21:18;;;;;;;5.03;2.90;;;4.80;99.90;;;;;;5073429;28;20058;-71
2021/12/12 13:24:18;;;;;;;4.70;2.60;;;4.80;99.90;;;;;;5056072;28;20032;-71
2021/12/12 13:27:34;;;;;;;5.70;2.95;;;4.70;99.90;;;;;;5055860;28;20017;-71
2021/12/12 13:30:04;;;;;;;6.47;3.38;;;4.60;99.90;;;;;;5072002;28;20461;-71
2021/12/12 13:32:37;;;;;;;8.90;4.53;;;4.50;99.90;;;;;;5073797;28;20050;-70
2021/12/12 13:35:10;;;;;;;10.27;4.53;;;4.30;99.90;;;;;;5073915;28;20025;-71
2021/12/12 13:37:45;;;;;;;12.40;5.45;;;4.20;99.90;;;;;;5055737;28;20464;-71
2021/12/12 13:40:24;;;;;;;12.27;5.53;;;4.10;99.90;;;;;;5055932;28;20346;-70
2021/12/12 13:43:24;;;;;;;13.15;5.63;;;4.00;99.90;;;;;;5073665;28;20039;-71
2021/12/12 13:46:02;;;;;;;12.27;6.03;;;4.00;99.90;;;;;;5073679;28;20052;-71
2021/12/12 13:48:43;;;;;;;14.83;6.33;;;3.90;99.90;;;;;;5055764;28;20381;-71
2021/12/12 13:51:16;;;;;;;15.70;6.97;;;3.90;99.90;;;;;;5073619;28;20035;-71
2021/12/12 13:54:00;;;;;;;17.23;7.70;;;3.90;99.90;;;;;;5055570;28;20099;-71
2021/12/12 13:56:29;;;;;;;20.00;9.18;;;3.80;99.90;;;;;;5073543;28;20028;-70
2021/12/12 13:59:04;;;;;;;16.38;7.93;;;3.80;99.90;;;;;;5073406;28;20031;-71